createdAt,value
2022-10-17T00:01:07.796Z,1.21
2022-10-17T00:03:34.978Z,1.20
2022-10-17T00:06:05.983Z,1.19
2022-10-17T00:08:32.641Z,1.18
2022-10-17T00:11:01.266Z,1.17
2022-10-17T00:13:28.063Z,1.15
2022-10-17T00:15:54.928Z,1.16
2022-10-17T00:18:21.593Z,1.16
2022-10-17T00:20:48.249Z,1.13
2022-10-17T00:23:14.936Z,1.10
2022-10-17T00:25:41.756Z,1.09
2022-10-17T00:28:12.399Z,1.08
2022-10-17T00:30:39.203Z,1.08
2022-10-17T00:33:05.951Z,1.07
2022-10-17T00:35:32.876Z,1.06
2022-10-17T00:37:59.580Z,1.05
2022-10-17T00:40:26.326Z,1.02
2022-10-17T00:42:53.252Z,1.00
2022-10-17T00:45:21.376Z,0.98
2022-10-17T00:48:14.437Z,0.98
2022-10-17T00:50:42.512Z,0.95
2022-10-17T00:53:26.457Z,0.92
2022-10-17T00:55:53.116Z,0.89
2022-10-17T00:58:19.776Z,0.87
2022-10-17T01:00:47.020Z,0.87
2022-10-17T01:03:15.065Z,0.86
2022-10-17T01:05:42.033Z,0.86
2022-10-17T01:08:08.780Z,0.85
2022-10-17T01:10:45.620Z,0.83
2022-10-17T01:13:15.249Z,0.82
2022-10-17T01:15:41.860Z,0.81
2022-10-17T01:18:37.771Z,0.79
2022-10-17T01:21:30.932Z,0.76
2022-10-17T01:24:25.253Z,0.71
2022-10-17T01:27:10.766Z,0.67
2022-10-17T01:29:56.018Z,0.61
2022-10-17T01:32:31.560Z,0.53
2022-10-17T01:35:00.356Z,0.51
2022-10-17T01:37:41.453Z,0.48
2022-10-17T01:40:17.400Z,0.47
2022-10-17T01:42:53.265Z,0.46
2022-10-17T01:45:23.588Z,0.47
2022-10-17T01:47:50.882Z,0.49
2022-10-17T01:50:20.313Z,0.52
2022-10-17T01:52:59.263Z,0.53
2022-10-17T01:55:32.156Z,0.55
2022-10-17T01:58:10.692Z,0.55
2022-10-17T02:00:44.388Z,0.55
2022-10-17T02:03:14.224Z,0.55
2022-10-17T02:05:41.569Z,0.54
2022-10-17T02:08:09.703Z,0.56
2022-10-17T02:10:57.099Z,0.57
2022-10-17T02:13:29.781Z,0.59
2022-10-17T02:16:08.610Z,0.62
2022-10-17T02:18:47.076Z,0.63
2022-10-17T02:21:43.085Z,0.61
2022-10-17T02:24:17.763Z,0.59
2022-10-17T02:26:47.201Z,0.59
2022-10-17T02:29:16.831Z,0.60
2022-10-17T02:31:45.182Z,0.62
2022-10-17T02:34:33.844Z,0.62
2022-10-17T02:37:02.177Z,0.61
2022-10-17T02:39:29.048Z,0.59
2022-10-17T02:41:57.136Z,0.60
2022-10-17T02:44:23.827Z,0.61
2022-10-17T02:46:55.963Z,0.61
2022-10-17T02:49:23.997Z,0.60
2022-10-17T02:51:56.803Z,0.60
2022-10-17T02:54:25.205Z,0.60
2022-10-17T02:56:59.154Z,0.63
2022-10-17T02:59:25.909Z,0.66
2022-10-17T03:01:52.692Z,0.68
2022-10-17T03:04:19.484Z,0.72
2022-10-17T03:06:47.113Z,0.75
2022-10-17T03:09:14.071Z,0.76
2022-10-17T03:11:40.915Z,0.78
2022-10-17T03:14:07.973Z,0.81
2022-10-17T03:16:34.733Z,0.83
2022-10-17T03:19:01.475Z,0.85
2022-10-17T03:21:28.212Z,0.86
2022-10-17T03:23:55.304Z,0.88
2022-10-17T03:26:22.116Z,0.89
2022-10-17T03:28:51.952Z,0.89
2022-10-17T03:31:21.260Z,0.90
2022-10-17T03:33:48.243Z,0.91
2022-10-17T03:36:16.272Z,0.91
2022-10-17T03:38:46.469Z,0.92
2022-10-17T03:41:13.378Z,0.93
2022-10-17T03:43:40.128Z,0.94
2022-10-17T03:46:07.963Z,0.95
2022-10-17T03:48:35.006Z,0.97
2022-10-17T03:51:08.554Z,0.97
2022-10-17T03:53:39.750Z,0.96
2022-10-17T03:56:10.650Z,0.96
2022-10-17T03:58:37.452Z,0.95
2022-10-17T04:01:08.978Z,0.94
2022-10-17T04:03:35.712Z,0.93
2022-10-17T04:06:02.844Z,0.92
2022-10-17T04:08:31.348Z,0.92
2022-10-17T04:11:13.853Z,0.93
2022-10-17T04:13:40.849Z,0.94
2022-10-17T04:16:08.754Z,0.93
2022-10-17T04:18:36.816Z,0.92
2022-10-17T04:21:04.302Z,0.93
2022-10-17T04:23:31.345Z,0.93
2022-10-17T04:26:01.328Z,0.93
2022-10-17T04:28:41.605Z,0.93
2022-10-17T04:31:10.351Z,0.92
2022-10-17T04:33:48.673Z,0.91
2022-10-17T04:36:17.108Z,0.89
2022-10-17T04:38:44.160Z,0.89
2022-10-17T04:41:12.704Z,0.90
2022-10-17T04:43:39.737Z,0.93
2022-10-17T04:46:11.692Z,0.97
2022-10-17T04:48:38.670Z,1.00
2022-10-17T04:51:07.576Z,1.05
2022-10-17T04:53:42.959Z,1.12
2022-10-17T04:56:10.544Z,1.18
2022-10-17T04:58:37.981Z,1.42
2022-10-17T05:01:06.993Z,1.83
2022-10-17T05:03:34.812Z,2.49
2022-10-17T05:06:09.932Z,3.25
2022-10-17T05:08:37.066Z,3.93
2022-10-17T05:11:04.135Z,4.39
2022-10-17T05:13:30.896Z,4.91
2022-10-17T05:16:01.294Z,5.31
2022-10-17T05:18:28.829Z,5.48
2022-10-17T05:20:56.789Z,5.40
2022-10-17T05:23:23.739Z,5.25
2022-10-17T05:25:54.752Z,5.18
2022-10-17T05:28:23.985Z,5.18
2022-10-17T05:30:52.014Z,5.08
2022-10-17T05:33:18.732Z,4.95
2022-10-17T05:35:45.506Z,4.86
2022-10-17T05:38:12.246Z,4.80
2022-10-17T05:40:39.576Z,4.73
2022-10-17T05:43:06.448Z,4.75
2022-10-17T05:45:33.366Z,4.79
2022-10-17T05:48:00.275Z,4.72
2022-10-17T05:57:53.965Z,4.36
2022-10-17T06:00:22.023Z,4.27
2022-10-17T06:02:54.077Z,4.18
2022-10-17T06:05:22.227Z,4.17
2022-10-17T06:07:52.534Z,4.18
2022-10-17T06:10:20.149Z,4.25
2022-10-17T06:12:46.968Z,4.38
2022-10-17T06:15:15.060Z,4.56
2022-10-17T06:17:44.811Z,4.75
2022-10-17T06:20:11.650Z,4.96
2022-10-17T06:22:38.331Z,5.24
2022-10-17T06:25:10.676Z,5.52
2022-10-17T06:27:37.398Z,5.75
2022-10-17T06:30:04.948Z,5.99
2022-10-17T06:32:32.157Z,6.23
2022-10-17T06:34:59.489Z,6.46
2022-10-17T06:37:32.301Z,6.71
2022-10-17T06:40:04.168Z,7.03
2022-10-17T06:42:31.793Z,7.45
2022-10-17T06:45:08.923Z,7.89
2022-10-17T06:47:53.535Z,8.51
2022-10-17T06:50:38.686Z,9.19
2022-10-17T06:53:17.831Z,9.75
2022-10-17T06:56:04.391Z,10.13
2022-10-17T06:58:52.955Z,10.32
2022-10-17T07:01:41.870Z,10.40
2022-10-17T07:04:11.640Z,10.43
2022-10-17T07:06:38.877Z,10.48
2022-10-17T07:09:11.492Z,10.52
2022-10-17T07:11:38.360Z,10.52
2022-10-17T07:14:05.106Z,10.52
2022-10-17T07:16:33.704Z,10.53
2022-10-17T07:19:29.593Z,10.58
2022-10-17T07:21:56.445Z,10.65
2022-10-17T07:24:23.207Z,10.76
2022-10-17T07:27:13.754Z,10.94
2022-10-17T07:29:40.661Z,11.12
2022-10-17T07:32:31.003Z,11.32
2022-10-17T07:34:58.649Z,11.47
2022-10-17T07:37:25.705Z,11.61
2022-10-17T07:39:56.647Z,11.75
2022-10-17T07:42:23.424Z,11.83
2022-10-17T07:44:51.149Z,11.92
2022-10-17T07:47:18.859Z,12.05
2022-10-17T07:49:47.234Z,12.21
2022-10-17T07:52:14.308Z,12.37
2022-10-17T07:54:41.399Z,12.51
2022-10-17T07:57:08.112Z,12.67
2022-10-17T07:59:35.122Z,12.84
2022-10-17T08:02:01.940Z,13.00
2022-10-17T08:04:28.762Z,13.16
2022-10-17T08:07:05.458Z,13.29
2022-10-17T08:09:38.644Z,13.46
2022-10-17T08:12:05.521Z,13.60
2022-10-17T08:14:32.294Z,13.73
2022-10-17T08:16:59.134Z,13.88
2022-10-17T08:19:25.901Z,14.06
2022-10-17T08:21:54.381Z,14.18
2022-10-17T08:24:21.183Z,14.29
2022-10-17T08:26:49.578Z,14.41
2022-10-17T08:29:18.626Z,14.53
2022-10-17T08:31:49.984Z,14.63
2022-10-17T08:34:19.300Z,14.74
2022-10-17T08:36:47.056Z,14.86
2022-10-17T08:39:13.868Z,14.98
2022-10-17T08:41:49.745Z,15.08
2022-10-17T08:44:30.098Z,15.18
2022-10-17T08:46:59.204Z,15.27
2022-10-17T08:49:51.581Z,15.37
2022-10-17T08:52:33.373Z,15.46
2022-10-17T08:55:00.212Z,15.52
2022-10-17T08:57:28.986Z,15.56
2022-10-17T08:59:57.235Z,15.59
2022-10-17T09:02:44.456Z,15.62
2022-10-17T09:05:37.652Z,15.63
2022-10-17T09:08:31.996Z,15.63
2022-10-17T09:11:03.959Z,15.70
2022-10-17T09:13:41.373Z,15.78
2022-10-17T09:16:24.518Z,15.86
2022-10-17T09:18:57.557Z,15.93
2022-10-17T09:21:30.562Z,15.99
2022-10-17T09:24:09.053Z,15.99
2022-10-17T09:26:38.861Z,16.02
2022-10-17T09:29:10.839Z,16.04
2022-10-17T09:31:42.758Z,16.09
2022-10-17T09:34:09.869Z,16.15
2022-10-17T09:36:38.538Z,16.20
2022-10-17T09:39:14.233Z,16.22
2022-10-17T09:41:48.100Z,16.24
2022-10-17T09:44:23.089Z,16.25
2022-10-17T09:47:27.244Z,16.26
2022-10-17T09:49:53.875Z,16.27
2022-10-17T09:52:25.703Z,16.28
2022-10-17T09:55:03.325Z,16.30
2022-10-17T09:57:30.654Z,16.31
2022-10-17T10:00:01.929Z,16.28
2022-10-17T10:02:30.594Z,16.21
2022-10-17T10:05:07.101Z,16.18
2022-10-17T10:07:37.098Z,16.16
2022-10-17T10:10:05.912Z,16.13
2022-10-17T10:12:35.029Z,16.13
2022-10-17T10:15:02.233Z,16.14
2022-10-17T10:17:36.876Z,16.15
2022-10-17T10:20:36.852Z,16.14
2022-10-17T10:23:15.011Z,16.06
2022-10-17T10:25:59.874Z,15.98
2022-10-17T10:28:29.089Z,15.94
2022-10-17T10:30:55.976Z,15.95
2022-10-17T10:33:23.791Z,15.96
2022-10-17T10:35:59.525Z,15.92
2022-10-17T10:38:26.229Z,15.88
2022-10-17T10:40:54.979Z,15.87
2022-10-17T10:43:25.476Z,15.88
2022-10-17T10:45:52.306Z,15.90
2022-10-17T10:48:51.360Z,15.92
2022-10-17T10:51:21.379Z,15.98
2022-10-17T10:54:20.958Z,15.99
2022-10-17T10:56:52.637Z,16.02
2022-10-17T10:59:35.510Z,16.07
2022-10-17T11:04:17.762Z,16.14
2022-10-17T11:06:45.009Z,16.10
2022-10-17T11:09:33.950Z,16.07
2022-10-17T11:12:12.213Z,16.06
2022-10-17T11:14:51.220Z,16.09
2022-10-17T11:17:50.417Z,16.11
2022-10-17T11:20:27.126Z,16.15
2022-10-17T11:23:01.646Z,16.17
2022-10-17T11:25:36.881Z,16.21
2022-10-17T11:28:23.937Z,16.25
2022-10-17T11:31:03.344Z,16.28
2022-10-17T11:33:44.746Z,16.27
2022-10-17T11:36:11.491Z,16.28
2022-10-17T11:38:49.470Z,16.28
2022-10-17T11:41:20.878Z,16.28
2022-10-17T11:43:54.190Z,16.29
2022-10-17T11:46:24.617Z,16.28
2022-10-17T11:49:20.575Z,16.27
2022-10-17T11:52:01.557Z,16.24
2022-10-17T11:54:39.026Z,16.25
2022-10-17T11:57:24.586Z,16.28
2022-10-17T12:00:32.445Z,16.32
2022-10-17T12:03:16.058Z,16.37
2022-10-17T12:05:48.653Z,16.41
2022-10-17T12:08:26.923Z,16.48
2022-10-17T12:11:01.137Z,16.53
2022-10-17T12:13:28.589Z,16.57
2022-10-17T12:15:58.086Z,16.62
2022-10-17T12:18:27.282Z,16.67
2022-10-17T12:20:58.080Z,16.72
2022-10-17T12:23:29.272Z,16.77
2022-10-17T12:26:01.574Z,16.80
2022-10-17T12:28:37.561Z,16.82
2022-10-17T12:31:13.265Z,16.85
2022-10-17T12:33:46.241Z,16.88
2022-10-17T12:36:21.214Z,16.90
2022-10-17T12:38:50.222Z,16.91
2022-10-17T12:41:17.846Z,16.90
2022-10-17T12:46:51.207Z,16.92
2022-10-17T12:49:46.589Z,16.93
2022-10-17T12:52:31.854Z,16.92
2022-10-17T12:55:14.031Z,16.91
2022-10-17T12:58:05.537Z,16.90
2022-10-17T13:00:43.802Z,16.90
2022-10-17T13:03:30.607Z,16.89
2022-10-17T13:06:05.656Z,16.90
2022-10-17T13:08:34.295Z,16.91
2022-10-17T13:11:01.044Z,16.91
2022-10-17T13:13:39.197Z,16.90
2022-10-17T13:16:06.080Z,16.88
2022-10-17T13:18:32.976Z,16.88
2022-10-17T13:21:01.957Z,16.86
2022-10-17T13:23:36.030Z,16.84
2022-10-17T13:26:22.228Z,16.81
2022-10-17T13:29:04.884Z,16.79
2022-10-17T13:31:36.356Z,16.76
2022-10-17T13:34:05.161Z,16.74
2022-10-17T13:36:32.450Z,16.72
2022-10-17T13:39:00.331Z,16.70
2022-10-17T13:41:36.808Z,16.70
2022-10-17T13:44:13.373Z,16.69
2022-10-17T13:46:40.171Z,16.68
2022-10-17T13:49:18.811Z,16.67
2022-10-17T13:51:47.295Z,16.65
2022-10-17T13:54:32.030Z,16.63
2022-10-17T13:56:59.009Z,16.61
2022-10-17T13:59:48.067Z,16.58
2022-10-17T14:02:17.411Z,16.53
2022-10-17T14:05:15.207Z,16.50
2022-10-17T14:08:13.048Z,16.47
2022-10-17T14:10:42.900Z,16.43
2022-10-17T14:13:19.806Z,16.40
2022-10-17T14:15:46.595Z,16.36
2022-10-17T14:18:25.504Z,16.32
2022-10-17T14:23:43.570Z,16.21
2022-10-17T14:26:36.915Z,16.13
2022-10-17T14:29:06.172Z,16.02
2022-10-17T14:31:34.089Z,15.89
2022-10-17T14:34:01.787Z,15.74
2022-10-17T14:36:36.288Z,15.59
2022-10-17T14:39:03.664Z,15.44
2022-10-17T14:41:48.078Z,15.30
2022-10-17T14:44:26.684Z,15.13
2022-10-17T14:46:59.420Z,14.99
2022-10-17T14:49:30.497Z,14.84
2022-10-17T14:52:18.356Z,14.71
2022-10-17T14:54:47.123Z,14.58
2022-10-17T14:57:19.420Z,14.47
2022-10-17T14:59:55.100Z,14.33
2022-10-17T15:02:27.270Z,14.21
2022-10-17T15:04:54.300Z,14.09
2022-10-17T15:07:21.343Z,13.95
2022-10-17T15:09:50.595Z,13.83
2022-10-17T15:12:23.289Z,13.70
2022-10-17T15:14:50.746Z,13.58
2022-10-17T15:17:20.887Z,13.44
2022-10-17T15:19:50.846Z,13.30
2022-10-17T15:22:18.349Z,13.18
2022-10-17T15:24:47.965Z,13.06
2022-10-17T15:27:22.585Z,12.94
2022-10-17T15:29:49.541Z,12.83
2022-10-17T15:32:16.220Z,12.73
2022-10-17T15:34:42.856Z,12.64
2022-10-17T15:37:21.731Z,12.55
2022-10-17T15:39:54.534Z,12.43
2022-10-17T15:42:22.515Z,12.34
2022-10-17T15:44:50.365Z,12.23
2022-10-17T15:47:35.405Z,12.12
2022-10-17T15:50:02.203Z,12.01
2022-10-17T15:52:28.817Z,11.91
2022-10-17T15:54:57.287Z,11.82
2022-10-17T15:57:30.322Z,11.73
2022-10-17T15:59:57.807Z,11.65
2022-10-17T16:02:24.659Z,11.56
2022-10-17T16:04:51.589Z,11.46
2022-10-17T16:07:19.039Z,11.36
2022-10-17T16:09:45.808Z,11.28
2022-10-17T16:12:17.353Z,11.22
2022-10-17T16:14:44.119Z,11.13
2022-10-17T16:17:15.255Z,11.04
2022-10-17T16:19:42.742Z,10.96
2022-10-17T16:22:26.780Z,10.88
2022-10-17T16:24:58.936Z,10.80
2022-10-17T16:27:26.417Z,10.72
2022-10-17T16:29:53.167Z,10.65
2022-10-17T16:32:20.019Z,10.59
2022-10-17T16:34:46.747Z,10.52
2022-10-17T16:37:13.445Z,10.46
2022-10-17T16:39:40.113Z,10.41
2022-10-17T16:42:07.109Z,10.36
2022-10-17T16:44:34.020Z,10.30
2022-10-17T16:47:00.707Z,10.25
2022-10-17T16:49:27.388Z,10.19
2022-10-17T16:51:54.046Z,10.13
2022-10-17T16:54:20.706Z,10.08
2022-10-17T16:56:47.389Z,10.03
2022-10-17T16:59:14.109Z,9.98
2022-10-17T17:01:41.725Z,9.91
2022-10-17T17:04:09.441Z,9.85
2022-10-17T17:06:36.748Z,9.79
2022-10-17T17:09:03.497Z,9.74
2022-10-17T17:11:31.477Z,9.66
2022-10-17T17:13:58.717Z,9.60
2022-10-17T17:16:26.404Z,9.56
2022-10-17T17:19:02.916Z,9.51
2022-10-17T17:21:29.730Z,9.45
2022-10-17T17:23:58.359Z,9.40
2022-10-17T17:26:25.606Z,9.34
2022-10-17T17:28:53.516Z,9.30
2022-10-17T17:31:24.798Z,9.26
2022-10-17T17:33:52.169Z,9.21
2022-10-17T17:36:23.202Z,9.16
2022-10-17T17:38:50.573Z,9.12
2022-10-17T17:41:18.328Z,9.07
2022-10-17T17:43:46.015Z,9.01
2022-10-17T17:46:13.121Z,8.98
2022-10-17T17:48:41.173Z,8.95
2022-10-17T17:51:11.261Z,8.92
2022-10-17T17:53:38.148Z,8.89
2022-10-17T17:56:10.176Z,8.84
2022-10-17T17:58:37.109Z,8.79
2022-10-17T18:01:12.351Z,8.75
2022-10-17T18:03:41.197Z,8.70
2022-10-17T18:06:08.082Z,8.65
2022-10-17T18:08:35.177Z,8.60
2022-10-17T18:11:01.930Z,8.58
2022-10-17T18:13:28.689Z,8.56
2022-10-17T18:15:57.949Z,8.54
2022-10-17T18:18:25.562Z,8.51
2022-10-17T18:20:52.459Z,8.50
2022-10-17T18:23:19.737Z,8.49
2022-10-17T18:26:05.217Z,8.48
2022-10-17T18:28:36.948Z,8.46
2022-10-17T18:31:24.304Z,8.44
2022-10-17T18:33:55.525Z,8.42
2022-10-17T18:36:22.406Z,8.40
2022-10-17T18:38:49.158Z,8.38
2022-10-17T18:41:18.070Z,8.37
2022-10-17T18:43:45.707Z,8.35
2022-10-17T18:46:21.386Z,8.34
2022-10-17T18:48:48.571Z,8.33
2022-10-17T18:51:17.142Z,8.30
2022-10-17T18:53:45.041Z,8.28
2022-10-17T18:56:12.144Z,8.26
2022-10-17T18:58:39.188Z,8.23
2022-10-17T19:01:07.974Z,8.20
2022-10-17T19:03:34.804Z,8.16
2022-10-17T19:06:02.991Z,8.16
2022-10-17T19:08:29.849Z,8.15
2022-10-17T19:10:56.634Z,8.13
2022-10-17T19:13:23.324Z,8.12
2022-10-17T19:15:50.055Z,8.11
2022-10-17T19:18:17.043Z,8.10
2022-10-17T19:20:44.543Z,8.08
2022-10-17T19:23:11.790Z,8.05
2022-10-17T19:25:38.484Z,8.03
2022-10-17T19:28:05.137Z,8.02
2022-10-17T19:30:31.815Z,8.01
2022-10-17T19:32:58.925Z,7.99
2022-10-17T19:35:25.609Z,7.97
2022-10-17T19:37:52.425Z,7.95
2022-10-17T19:40:19.240Z,7.93
2022-10-17T19:42:45.997Z,7.90
2022-10-17T19:45:12.654Z,7.89
2022-10-17T19:47:40.836Z,7.88
2022-10-17T19:50:07.892Z,7.87
2022-10-17T19:52:34.535Z,7.84
2022-10-17T19:55:01.257Z,7.82
2022-10-17T19:57:27.920Z,7.81
2022-10-17T19:59:56.028Z,7.79
2022-10-17T20:02:23.355Z,7.76
2022-10-17T20:05:06.332Z,7.74
2022-10-17T20:07:36.840Z,7.71
2022-10-17T20:10:03.805Z,7.67
2022-10-17T20:12:30.828Z,7.64
2022-10-17T20:14:57.818Z,7.64
2022-10-17T20:17:24.785Z,7.63
2022-10-17T20:19:51.648Z,7.62
2022-10-17T20:22:18.341Z,7.62
2022-10-17T20:24:45.444Z,7.60
2022-10-17T20:27:12.089Z,7.60
2022-10-17T20:29:38.946Z,7.60
2022-10-17T20:32:05.762Z,7.60
2022-10-17T20:34:35.535Z,7.60
2022-10-17T20:37:02.489Z,7.61
2022-10-17T20:39:29.455Z,7.60
2022-10-17T20:41:56.550Z,7.58
2022-10-17T20:44:23.267Z,7.57
2022-10-17T20:47:01.213Z,7.55
2022-10-17T20:49:28.696Z,7.54
2022-10-17T20:51:55.382Z,7.53
2022-10-17T20:54:22.453Z,7.52
2022-10-17T20:56:49.189Z,7.51
2022-10-17T20:59:16.681Z,7.50
2022-10-17T21:01:43.722Z,7.47
2022-10-17T21:04:40.287Z,7.46
2022-10-17T21:06:57.399Z,7.43
2022-10-17T21:09:24.039Z,7.41
2022-10-17T21:11:54.416Z,7.38
2022-10-17T21:14:21.902Z,7.37
2022-10-17T21:16:48.647Z,7.35
2022-10-17T21:19:18.990Z,7.34
2022-10-17T21:21:46.303Z,7.35
2022-10-17T21:24:16.909Z,7.35
2022-10-17T21:26:44.680Z,7.35
2022-10-17T21:29:12.374Z,7.34
2022-10-17T21:31:40.614Z,7.33
2022-10-17T21:34:15.120Z,7.33
2022-10-17T21:36:41.827Z,7.33
2022-10-17T21:39:09.791Z,7.33
2022-10-17T21:41:36.571Z,7.33
2022-10-17T21:44:05.119Z,7.32
2022-10-17T21:46:32.017Z,7.30
2022-10-17T21:48:59.038Z,7.27
2022-10-17T21:51:26.028Z,7.27
2022-10-17T21:53:53.977Z,7.26
2022-10-17T21:56:23.685Z,7.26
2022-10-17T21:58:50.872Z,7.25
2022-10-17T22:01:20.155Z,7.24
2022-10-17T22:03:48.426Z,7.24
2022-10-17T22:09:04.748Z,7.20
2022-10-17T22:11:34.589Z,7.19
2022-10-17T22:14:03.237Z,7.19
2022-10-17T22:16:29.868Z,7.17
2022-10-17T22:19:00.523Z,7.12
2022-10-17T22:21:29.970Z,7.09
2022-10-17T22:23:58.791Z,7.05
2022-10-17T22:26:26.341Z,7.04
2022-10-17T22:28:53.090Z,7.02
2022-10-17T22:31:19.884Z,7.01
2022-10-17T22:33:46.578Z,7.01
2022-10-17T22:36:13.296Z,7.00
2022-10-17T22:38:40.016Z,6.99
2022-10-17T22:41:06.848Z,6.99
2022-10-17T22:43:33.465Z,6.97
2022-10-17T22:46:01.684Z,6.95
2022-10-17T22:48:28.601Z,6.94
2022-10-17T22:50:55.851Z,6.93
2022-10-17T22:53:24.288Z,6.91
2022-10-17T22:56:00.913Z,6.89
2022-10-17T22:58:28.440Z,6.87
2022-10-17T23:00:55.214Z,6.85
2022-10-17T23:03:22.179Z,6.82
2022-10-17T23:05:48.877Z,6.79
2022-10-17T23:08:16.010Z,6.76
2022-10-17T23:10:42.733Z,6.71
2022-10-17T23:13:09.517Z,6.69
2022-10-17T23:15:36.239Z,6.67
2022-10-17T23:18:02.985Z,6.66
2022-10-17T23:21:40.802Z,6.66
2022-10-17T23:24:07.448Z,6.61
2022-10-17T23:26:34.095Z,6.59
2022-10-17T23:29:00.828Z,6.59
2022-10-17T23:31:27.540Z,6.58
2022-10-17T23:33:54.186Z,6.57
2022-10-17T23:36:21.127Z,6.56
2022-10-17T23:38:48.021Z,6.54
2022-10-17T23:41:14.676Z,6.54
2022-10-17T23:43:41.387Z,6.53
2022-10-17T23:46:08.453Z,6.51
2022-10-17T23:48:35.220Z,6.51
2022-10-17T23:51:01.898Z,6.49
2022-10-17T23:53:28.663Z,6.49
2022-10-17T23:55:55.329Z,6.48
2022-10-17T23:58:22.013Z,6.48
